Betagas — V2KA8 — position and weather

sailwx.info

Track history (hours):
 
Tides and Currents Weather Stations Pressure Air Temp Water Temp Dewpoint Dewpoint Depression Visibility Wind Speed Wind Dir Waves Ship Positions

Betagas

Last reported at 2015-Jul-30 15:33 UTC. Time now 2015-Jul-30 16:12 UTC.
Position N 54°03' E 008°08'.

Length 114.6 m; beam 15.7 m; draft 7.4 m.

Type: Ship. MMSI: 304050636.

Date/timePositionNaut miles runAvg speedWind from/ knotsBaromVisibWave heightAir tempDewpointWater temp
2015-Jul-30 15:33N 54°03' E 008°08'0 0.0
2015-Jul-30 14:33N 54°03' E 008°08'0 0.1
2015-Jul-30 13:33N 54°03' E 008°08'0 0.1
2015-Jul-30 12:33N 54°03' E 008°08'10 9.6
2015-Jul-30 11:33N 54°06' E 007°52'1313.4
2015-Jul-30 10:33N 54°09' E 007°30'1414.2
2015-Jul-30 09:33N 54°09' E 007°06'4414.8
2015-Jul-30 06:33N 54°06' E 005°50'1514.9
2015-Jul-30 05:33N 54°04' E 005°25'1514.8
2015-Jul-30 04:33N 54°02' E 005°00'15213.5
2015-Jul-29 17:16N 54°29' E 000°44'1014.1
2015-Jul-29 16:33N 54°31' E 000°27'1414.2
2015-Jul-29 15:33N 54°33' E 000°03'1414.4
2015-Jul-29 14:33N 54°36' W 000°21'1514.4
2015-Jul-29 13:33N 54°38' W 000°46'14 0.5
2015-Jul-28 11:13N 54°36' W 001°10'5 7.2
2015-Jul-28 10:33N 54°40' W 001°05'0 0.0
2015-Jul-28 09:27N 54°40' W 001°05'0 0.0
2015-Jul-28 08:24N 54°40' W 001°05'0 0.0
2015-Jul-28 07:33N 54°40' W 001°05'0 0.0
2015-Jul-28 06:33N 54°40' W 001°05'0 0.0
2015-Jul-28 05:27N 54°40' W 001°05'0 0.0
2015-Jul-28 04:33N 54°40' W 001°05'0 0.0
2015-Jul-28 03:27N 54°40' W 001°05'0 0.0
2015-Jul-28 02:33N 54°40' W 001°05'0 0.0
2015-Jul-28 01:27N 54°40' W 001°05'0 0.0
2015-Jul-28 00:33N 54°40' W 001°05'0 0.0
2015-Jul-27 23:33N 54°40' W 001°05'0 0.0
2015-Jul-27 22:33N 54°40' W 001°05'0 0.0
2015-Jul-27 21:33N 54°40' W 001°05'0 0.0
2015-Jul-27 20:30N 54°40' W 001°05'0 0.0
2015-Jul-27 19:33N 54°40' W 001°05'0 0.0
2015-Jul-27 18:33N 54°40' W 001°05'0 0.0
2015-Jul-27 17:33N 54°40' W 001°05'0 0.0
2015-Jul-27 16:33N 54°40' W 001°05'0 0.0
2015-Jul-27 15:33N 54°40' W 001°05'0 0.0
2015-Jul-27 14:30N 54°40' W 001°05'0 0.0
2015-Jul-27 13:30N 54°40' W 001°05'0 0.0
2015-Jul-27 12:33N 54°40' W 001°05'0 0.0
2015-Jul-27 11:30N 54°40' W 001°05'0 0.0
2015-Jul-27 10:33N 54°40' W 001°05'0 0.0
2015-Jul-27 09:33N 54°40' W 001°05'0 0.0
2015-Jul-27 08:33N 54°40' W 001°05'0 0.0
2015-Jul-27 07:33N 54°40' W 001°05'0 0.0
2015-Jul-27 06:33N 54°40' W 001°05'0 0.0
2015-Jul-27 05:33N 54°40' W 001°05'0 0.0
2015-Jul-27 04:33N 54°40' W 001°05'1 0.7
2015-Jul-27 03:33N 54°40' W 001°04'1211.9
2015-Jul-27 02:33N 54°36' W 000°44'1111.1
2015-Jul-27 01:33N 54°31' W 000°27'1110.9
2015-Jul-27 00:33N 54°23' W 000°15'1110.9
2015-Jul-26 23:33N 54°15' W 000°02'1110.9
2015-Jul-26 22:33N 54°07' E 000°10'1111.4
2015-Jul-26 21:33N 53°59' E 000°23'1211.9
2015-Jul-26 20:33N 53°50' E 000°37'5012.5
2015-Jul-26 16:33N 53°07' E 001°23'1110.9
2015-Jul-26 15:34N 52°58' E 001°32'1010.4
2015-Jul-26 14:33N 52°51' E 001°44'1110.9
2015-Jul-26 13:33N 52°46' E 002°00'7111.7
2015-Jul-26 07:31N 52°07' E 003°37'1111.7
2015-Jul-26 06:33N 52°03' E 003°55'1010.3
2015-Jul-26 05:33N 51°58' E 004°08'3 2.7
2015-Jul-26 04:21N 51°55' E 004°12'0 0.0
2015-Jul-26 03:33N 51°55' E 004°12'0 0.0
2015-Jul-26 02:33N 51°55' E 004°12'0 0.0
2015-Jul-26 01:27N 51°55' E 004°12'0 0.0
2015-Jul-26 00:33N 51°55' E 004°12'0 0.0
2015-Jul-25 23:27N 51°55' E 004°12'0 0.0
2015-Jul-25 21:33N 51°55' E 004°12'0 0.0
2015-Jul-25 20:33N 51°55' E 004°12'0 0.0
2015-Jul-25 19:33N 51°55' E 004°12'0 0.0
2015-Jul-25 18:33N 51°55' E 004°12'0 0.0
2015-Jul-25 17:33N 51°55' E 004°12'0 0.0
2015-Jul-25 16:27N 51°55' E 004°12'0 0.0
2015-Jul-25 15:33N 51°55' E 004°12'0 0.0
2015-Jul-25 14:33N 51°55' E 004°12'0 0.0
2015-Jul-25 13:10N 51°55' E 004°12'0 0.0
2015-Jul-25 12:33N 51°55' E 004°12'0 0.0
2015-Jul-25 11:33N 51°55' E 004°12'0 0.0
2015-Jul-25 10:21N 51°55' E 004°12'2 2.8
2015-Jul-25 09:33N 51°57' E 004°10'1111.2
2015-Jul-25 08:34N 51°59' E 003°52'1514.9
2015-Jul-25 07:33N 51°56' E 003°29'5513.4
2015-Jul-25 03:26N 51°27' E 002°12'1112.7
2015-Jul-25 02:33N 51°17' E 002°05'1212.2
2015-Jul-25 01:33N 51°09' E 001°51'1312.7
2015-Jul-25 00:33N 51°01' E 001°35'9012.3
2015-Jul-24 17:13N 49°57' W 000°04'914.0
2015-Jul-24 16:33N 49°48' W 000°08'1414.4
2015-Jul-24 15:33N 49°34' W 000°07'1211.8
2015-Jul-24 14:33N 49°26' E 000°07'1212.0
2015-Jul-24 13:33N 49°27' E 000°26'4 4.4
2015-Jul-24 12:32N 49°28' E 000°32'0 0.0
2015-Jul-24 11:23N 49°28' E 000°32'0 0.0
2015-Jul-24 10:05N 49°28' E 000°32'0 0.0
2015-Jul-24 09:29N 49°28' E 000°32'0 0.0
2015-Jul-24 08:32N 49°28' E 000°32'0 0.0
2015-Jul-24 07:32N 49°28' E 000°32'0 0.0
2015-Jul-24 06:32N 49°28' E 000°32'0 0.0
2015-Jul-24 05:29N 49°28' E 000°32'0 0.0
2015-Jul-24 04:32N 49°28' E 000°32'0 0.0
2015-Jul-24 03:32N 49°28' E 000°32'0 0.0
2015-Jul-24 01:23N 49°28' E 000°32'0 0.0
2015-Jul-24 00:32N 49°28' E 000°32'0 0.0
2015-Jul-23 23:29N 49°28' E 000°32'0 0.0
2015-Jul-23 22:17N 49°28' E 000°32'0 0.0
2015-Jul-23 21:29N 49°28' E 000°32'0 0.0
2015-Jul-23 20:29N 49°28' E 000°32'0 0.0
2015-Jul-23 19:32N 49°28' E 000°32'0 0.0
2015-Jul-23 18:32N 49°28' E 000°32'0 0.0
2015-Jul-23 17:32N 49°28' E 000°32'0 0.0
2015-Jul-23 11:32N 49°28' E 000°32'0 0.0
2015-Jul-23 10:32N 49°28' E 000°32'0 0.0
2015-Jul-23 09:17N 49°28' E 000°32'0 0.0
2015-Jul-23 08:32N 49°28' E 000°32'0 0.0
2015-Jul-23 07:32N 49°28' E 000°32'0 0.0
2015-Jul-23 06:32N 49°28' E 000°32'0 0.0
2015-Jul-23 05:32N 49°28' E 000°32'0 0.0
2015-Jul-23 04:29N 49°28' E 000°32'0 0.0
2015-Jul-23 00:23N 49°28' E 000°32'0 0.0
2015-Jul-22 23:23N 49°28' E 000°32'0 0.0
2015-Jul-22 22:11N 49°28' E 000°32'0 0.0
2015-Jul-22 21:29N 49°28' E 000°32'0 0.0
2015-Jul-22 19:29N 49°28' E 000°32'0 0.0
2015-Jul-22 18:32N 49°28' E 000°32'0 0.0
2015-Jul-22 17:32N 49°28' E 000°32'0 0.0
2015-Jul-22 16:14N 49°28' E 000°32'0 0.0
2015-Jul-22 11:23N 49°28' E 000°32'3 3.4
2015-Jul-22 10:33N 49°29' E 000°28'1313.2
2015-Jul-22 09:34N 49°26' E 000°08'9 8.7
2015-Jul-22 08:33N 49°28' W 000°05'0 0.0
2015-Jul-22 07:33N 49°28' W 000°05'0 0.0
2015-Jul-22 06:33N 49°28' W 000°05'0 0.0
2015-Jul-22 05:27N 49°28' W 000°05'0 0.1
2015-Jul-22 04:33N 49°28' W 000°05'0 0.0
2015-Jul-22 03:33N 49°28' W 000°05'0 0.0
2015-Jul-22 02:33N 49°28' W 000°05'0 0.0
2015-Jul-22 01:30N 49°28' W 000°05'0 0.0
2015-Jul-22 00:33N 49°28' W 000°05'0 0.0
2015-Jul-21 23:33N 49°28' W 000°05'0 0.0
2015-Jul-21 22:33N 49°28' W 000°05'0 0.1
2015-Jul-21 21:33N 49°28' W 000°05'0 0.0
2015-Jul-21 20:33N 49°28' W 000°05'0 0.0
2015-Jul-21 19:33N 49°28' W 000°05'0 0.0
2015-Jul-21 18:33N 49°28' W 000°05'0 0.0
2015-Jul-21 17:33N 49°28' W 000°05'0 0.0
2015-Jul-21 16:33N 49°28' W 000°05'0 0.0
2015-Jul-21 15:33N 49°28' W 000°05'0 0.1
2015-Jul-21 14:33N 49°28' W 000°05'0 0.0
2015-Jul-21 13:33N 49°28' W 000°05'0 0.0
2015-Jul-21 12:33N 49°28' W 000°05'0 0.0
2015-Jul-21 11:33N 49°28' W 000°05'0 0.0
2015-Jul-21 10:33N 49°28' W 000°05'0 0.0
2015-Jul-21 09:33N 49°28' W 000°05'0 0.0
2015-Jul-21 08:33N 49°28' W 000°05'0 0.0
2015-Jul-21 07:33N 49°28' W 000°05'0 0.0
2015-Jul-21 06:33N 49°28' W 000°05'0 0.0
2015-Jul-21 05:33N 49°28' W 000°05'0 0.0
2015-Jul-21 04:33N 49°28' W 000°05'0 0.1
2015-Jul-21 03:33N 49°28' W 000°05'0 0.0
2015-Jul-21 02:33N 49°28' W 000°05'0 0.0
2015-Jul-21 01:33N 49°28' W 000°05'0 0.0
2015-Jul-21 00:33N 49°28' W 000°05'0 0.0
2015-Jul-20 23:33N 49°28' W 000°05'0 0.0
2015-Jul-20 22:33N 49°28' W 000°05'0 0.0
2015-Jul-20 21:33N 49°28' W 000°05'0 0.0
2015-Jul-20 20:33N 49°28' W 000°05'0 0.0
2015-Jul-20 19:33N 49°28' W 000°05'0 0.1
2015-Jul-20 18:33N 49°28' W 000°05'0 0.0
2015-Jul-20 17:33N 49°28' W 000°05'0 0.0
2015-Jul-20 16:33N 49°28' W 000°05'  
Track history (hours):
 
Tides and Currents Weather Stations Pressure Air Temp Water Temp Dewpoint Dewpoint Depression Visibility Wind Speed Wind Dir Waves Ship Positions

Betagas

Last reported at 2015-Jul-30 15:33 UTC. Time now 2015-Jul-30 16:12 UTC.
Position N 54°03' E 008°08'.

Length 114.6 m; beam 15.7 m; draft 7.4 m.

Type: Ship. MMSI: 304050636.

Date/timePositionNaut miles runAvg speedWind from/ knotsBaromVisibWave heightAir tempDewpointWater temp
2015-Jul-30 15:33N 54°03' E 008°08'0 0.0
2015-Jul-30 14:33N 54°03' E 008°08'0 0.1
2015-Jul-30 13:33N 54°03' E 008°08'0 0.1
2015-Jul-30 12:33N 54°03' E 008°08'10 9.6
2015-Jul-30 11:33N 54°06' E 007°52'1313.4
2015-Jul-30 10:33N 54°09' E 007°30'1414.2
2015-Jul-30 09:33N 54°09' E 007°06'4414.8
2015-Jul-30 06:33N 54°06' E 005°50'1514.9
2015-Jul-30 05:33N 54°04' E 005°25'1514.8
2015-Jul-30 04:33N 54°02' E 005°00'15213.5
2015-Jul-29 17:16N 54°29' E 000°44'1014.1
2015-Jul-29 16:33N 54°31' E 000°27'1414.2
2015-Jul-29 15:33N 54°33' E 000°03'1414.4
2015-Jul-29 14:33N 54°36' W 000°21'1514.4
2015-Jul-29 13:33N 54°38' W 000°46'14 0.5
2015-Jul-28 11:13N 54°36' W 001°10'5 7.2
2015-Jul-28 10:33N 54°40' W 001°05'0 0.0
2015-Jul-28 09:27N 54°40' W 001°05'0 0.0
2015-Jul-28 08:24N 54°40' W 001°05'0 0.0
2015-Jul-28 07:33N 54°40' W 001°05'0 0.0
2015-Jul-28 06:33N 54°40' W 001°05'0 0.0
2015-Jul-28 05:27N 54°40' W 001°05'0 0.0
2015-Jul-28 04:33N 54°40' W 001°05'0 0.0
2015-Jul-28 03:27N 54°40' W 001°05'0 0.0
2015-Jul-28 02:33N 54°40' W 001°05'0 0.0
2015-Jul-28 01:27N 54°40' W 001°05'0 0.0
2015-Jul-28 00:33N 54°40' W 001°05'0 0.0
2015-Jul-27 23:33N 54°40' W 001°05'0 0.0
2015-Jul-27 22:33N 54°40' W 001°05'0 0.0
2015-Jul-27 21:33N 54°40' W 001°05'0 0.0
2015-Jul-27 20:30N 54°40' W 001°05'0 0.0
2015-Jul-27 19:33N 54°40' W 001°05'0 0.0
2015-Jul-27 18:33N 54°40' W 001°05'0 0.0
2015-Jul-27 17:33N 54°40' W 001°05'0 0.0
2015-Jul-27 16:33N 54°40' W 001°05'0 0.0
2015-Jul-27 15:33N 54°40' W 001°05'0 0.0
2015-Jul-27 14:30N 54°40' W 001°05'0 0.0
2015-Jul-27 13:30N 54°40' W 001°05'0 0.0
2015-Jul-27 12:33N 54°40' W 001°05'0 0.0
2015-Jul-27 11:30N 54°40' W 001°05'0 0.0
2015-Jul-27 10:33N 54°40' W 001°05'0 0.0
2015-Jul-27 09:33N 54°40' W 001°05'0 0.0
2015-Jul-27 08:33N 54°40' W 001°05'0 0.0
2015-Jul-27 07:33N 54°40' W 001°05'0 0.0
2015-Jul-27 06:33N 54°40' W 001°05'0 0.0
2015-Jul-27 05:33N 54°40' W 001°05'0 0.0
2015-Jul-27 04:33N 54°40' W 001°05'1 0.7
2015-Jul-27 03:33N 54°40' W 001°04'1211.9
2015-Jul-27 02:33N 54°36' W 000°44'1111.1
2015-Jul-27 01:33N 54°31' W 000°27'1110.9
2015-Jul-27 00:33N 54°23' W 000°15'1110.9
2015-Jul-26 23:33N 54°15' W 000°02'1110.9
2015-Jul-26 22:33N 54°07' E 000°10'1111.4
2015-Jul-26 21:33N 53°59' E 000°23'1211.9
2015-Jul-26 20:33N 53°50' E 000°37'5012.5
2015-Jul-26 16:33N 53°07' E 001°23'1110.9
2015-Jul-26 15:34N 52°58' E 001°32'1010.4
2015-Jul-26 14:33N 52°51' E 001°44'1110.9
2015-Jul-26 13:33N 52°46' E 002°00'7111.7
2015-Jul-26 07:31N 52°07' E 003°37'1111.7
2015-Jul-26 06:33N 52°03' E 003°55'1010.3
2015-Jul-26 05:33N 51°58' E 004°08'3 2.7
2015-Jul-26 04:21N 51°55' E 004°12'0 0.0
2015-Jul-26 03:33N 51°55' E 004°12'0 0.0
2015-Jul-26 02:33N 51°55' E 004°12'0 0.0
2015-Jul-26 01:27N 51°55' E 004°12'0 0.0
2015-Jul-26 00:33N 51°55' E 004°12'0 0.0
2015-Jul-25 23:27N 51°55' E 004°12'0 0.0
2015-Jul-25 21:33N 51°55' E 004°12'0 0.0
2015-Jul-25 20:33N 51°55' E 004°12'0 0.0
2015-Jul-25 19:33N 51°55' E 004°12'0 0.0
2015-Jul-25 18:33N 51°55' E 004°12'0 0.0
2015-Jul-25 17:33N 51°55' E 004°12'0 0.0
2015-Jul-25 16:27N 51°55' E 004°12'0 0.0
2015-Jul-25 15:33N 51°55' E 004°12'0 0.0
2015-Jul-25 14:33N 51°55' E 004°12'0 0.0
2015-Jul-25 13:10N 51°55' E 004°12'0 0.0
2015-Jul-25 12:33N 51°55' E 004°12'0 0.0
2015-Jul-25 11:33N 51°55' E 004°12'0 0.0
2015-Jul-25 10:21N 51°55' E 004°12'2 2.8
2015-Jul-25 09:33N 51°57' E 004°10'1111.2
2015-Jul-25 08:34N 51°59' E 003°52'1514.9
2015-Jul-25 07:33N 51°56' E 003°29'5513.4
2015-Jul-25 03:26N 51°27' E 002°12'1112.7
2015-Jul-25 02:33N 51°17' E 002°05'1212.2
2015-Jul-25 01:33N 51°09' E 001°51'1312.7
2015-Jul-25 00:33N 51°01' E 001°35'9012.3
2015-Jul-24 17:13N 49°57' W 000°04'914.0
2015-Jul-24 16:33N 49°48' W 000°08'1414.4
2015-Jul-24 15:33N 49°34' W 000°07'1211.8
2015-Jul-24 14:33N 49°26' E 000°07'1212.0
2015-Jul-24 13:33N 49°27' E 000°26'4 4.4
2015-Jul-24 12:32N 49°28' E 000°32'0 0.0
2015-Jul-24 11:23N 49°28' E 000°32'0 0.0
2015-Jul-24 10:05N 49°28' E 000°32'0 0.0
2015-Jul-24 09:29N 49°28' E 000°32'0 0.0
2015-Jul-24 08:32N 49°28' E 000°32'0 0.0
2015-Jul-24 07:32N 49°28' E 000°32'0 0.0
2015-Jul-24 06:32N 49°28' E 000°32'0 0.0
2015-Jul-24 05:29N 49°28' E 000°32'0 0.0
2015-Jul-24 04:32N 49°28' E 000°32'0 0.0
2015-Jul-24 03:32N 49°28' E 000°32'0 0.0
2015-Jul-24 01:23N 49°28' E 000°32'0 0.0
2015-Jul-24 00:32N 49°28' E 000°32'0 0.0
2015-Jul-23 23:29N 49°28' E 000°32'0 0.0
2015-Jul-23 22:17N 49°28' E 000°32'0 0.0
2015-Jul-23 21:29N 49°28' E 000°32'0 0.0
2015-Jul-23 20:29N 49°28' E 000°32'0 0.0
2015-Jul-23 19:32N 49°28' E 000°32'0 0.0
2015-Jul-23 18:32N 49°28' E 000°32'0 0.0
2015-Jul-23 17:32N 49°28' E 000°32'0 0.0
2015-Jul-23 11:32N 49°28' E 000°32'0 0.0
2015-Jul-23 10:32N 49°28' E 000°32'0 0.0
2015-Jul-23 09:17N 49°28' E 000°32'0 0.0
2015-Jul-23 08:32N 49°28' E 000°32'0 0.0
2015-Jul-23 07:32N 49°28' E 000°32'0 0.0
2015-Jul-23 06:32N 49°28' E 000°32'0 0.0
2015-Jul-23 05:32N 49°28' E 000°32'0 0.0
2015-Jul-23 04:29N 49°28' E 000°32'0 0.0
2015-Jul-23 00:23N 49°28' E 000°32'0 0.0
2015-Jul-22 23:23N 49°28' E 000°32'0 0.0
2015-Jul-22 22:11N 49°28' E 000°32'0 0.0
2015-Jul-22 21:29N 49°28' E 000°32'0 0.0
2015-Jul-22 19:29N 49°28' E 000°32'0 0.0
2015-Jul-22 18:32N 49°28' E 000°32'0 0.0
2015-Jul-22 17:32N 49°28' E 000°32'0 0.0
2015-Jul-22 16:14N 49°28' E 000°32'0 0.0
2015-Jul-22 11:23N 49°28' E 000°32'3 3.4
2015-Jul-22 10:33N 49°29' E 000°28'1313.2
2015-Jul-22 09:34N 49°26' E 000°08'9 8.7
2015-Jul-22 08:33N 49°28' W 000°05'0 0.0
2015-Jul-22 07:33N 49°28' W 000°05'0 0.0
2015-Jul-22 06:33N 49°28' W 000°05'0 0.0
2015-Jul-22 05:27N 49°28' W 000°05'0 0.1
2015-Jul-22 04:33N 49°28' W 000°05'0 0.0
2015-Jul-22 03:33N 49°28' W 000°05'0 0.0
2015-Jul-22 02:33N 49°28' W 000°05'0 0.0
2015-Jul-22 01:30N 49°28' W 000°05'0 0.0
2015-Jul-22 00:33N 49°28' W 000°05'0 0.0
2015-Jul-21 23:33N 49°28' W 000°05'0 0.0
2015-Jul-21 22:33N 49°28' W 000°05'0 0.1
2015-Jul-21 21:33N 49°28' W 000°05'0 0.0
2015-Jul-21 20:33N 49°28' W 000°05'0 0.0
2015-Jul-21 19:33N 49°28' W 000°05'0 0.0
2015-Jul-21 18:33N 49°28' W 000°05'0 0.0
2015-Jul-21 17:33N 49°28' W 000°05'0 0.0
2015-Jul-21 16:33N 49°28' W 000°05'0 0.0
2015-Jul-21 15:33N 49°28' W 000°05'0 0.1
2015-Jul-21 14:33N 49°28' W 000°05'0 0.0
2015-Jul-21 13:33N 49°28' W 000°05'0 0.0
2015-Jul-21 12:33N 49°28' W 000°05'0 0.0
2015-Jul-21 11:33N 49°28' W 000°05'0 0.0
2015-Jul-21 10:33N 49°28' W 000°05'0 0.0
2015-Jul-21 09:33N 49°28' W 000°05'0 0.0
2015-Jul-21 08:33N 49°28' W 000°05'0 0.0
2015-Jul-21 07:33N 49°28' W 000°05'0 0.0
2015-Jul-21 06:33N 49°28' W 000°05'0 0.0
2015-Jul-21 05:33N 49°28' W 000°05'0 0.0
2015-Jul-21 04:33N 49°28' W 000°05'0 0.1
2015-Jul-21 03:33N 49°28' W 000°05'0 0.0
2015-Jul-21 02:33N 49°28' W 000°05'0 0.0
2015-Jul-21 01:33N 49°28' W 000°05'0 0.0
2015-Jul-21 00:33N 49°28' W 000°05'0 0.0
2015-Jul-20 23:33N 49°28' W 000°05'0 0.0
2015-Jul-20 22:33N 49°28' W 000°05'0 0.0
2015-Jul-20 21:33N 49°28' W 000°05'0 0.0
2015-Jul-20 20:33N 49°28' W 000°05'0 0.0
2015-Jul-20 19:33N 49°28' W 000°05'0 0.1
2015-Jul-20 18:33N 49°28' W 000°05'0 0.0
2015-Jul-20 17:33N 49°28' W 000°05'0 0.0
2015-Jul-20 16:33N 49°28' W 000°05'  

Dump ship's entire track history